Time;durP1;ratioP1;P1;durP2;ratioP2;P2;SDS_P1;SDS_P2;PMS_P1;PMS_P2;Temp;Humidity;BMP_temperature;BMP_pressure;BME280_temperature;BME280_humidity;BME280_pressure;Samples;Min_cycle;Max_cycle;Signal;HPM_P1;HPM_P2
2022/09/08 00:00:37;;;;;;;1.20;1.10;;;;;;;22.16;50.89;98207.91;5134880;27;41793;-79
2022/09/08 00:03:08;;;;;;;1.33;1.23;;;;;;;22.15;50.93;98200.81;5117599;27;41482;-77
2022/09/08 00:05:42;;;;;;;1.80;1.47;;;;;;;22.12;51.85;98196.66;5153552;27;42310;-82
2022/09/08 00:08:10;;;;;;;1.50;1.13;;;;;;;22.12;51.90;98188.56;5117377;27;42052;-77
2022/09/08 00:10:39;;;;;;;1.00;1.00;;;;;;;22.10;51.70;98187.91;5134923;27;40913;-78
2022/09/08 00:13:07;;;;;;;1.83;1.40;;;;;;;22.13;51.97;98192.09;5134669;27;41195;-80
2022/09/08 00:15:37;;;;;;;1.80;1.30;;;;;;;22.15;51.39;98193.56;5134691;27;40901;-76
2022/09/08 00:18:05;;;;;;;1.20;1.10;;;;;;;22.16;51.06;98186.31;5117405;27;39603;-78
2022/09/08 00:20:33;;;;;;;2.03;1.80;;;;;;;22.18;51.93;98181.59;5153444;27;42614;-76
2022/09/08 00:23:02;;;;;;;1.67;1.23;;;;;;;22.15;52.90;98187.34;5134570;27;43942;-77
2022/09/08 00:25:29;;;;;;;2.17;1.27;;;;;;;22.11;54.14;98186.06;5121118;27;42597;-80
2022/09/08 00:27:57;;;;;;;1.47;1.37;;;;;;;22.05;54.24;98186.78;5138001;27;39049;-79
2022/09/08 00:30:25;;;;;;;1.70;1.33;;;;;;;21.98;53.92;98183.13;5156466;27;41706;-79
2022/09/08 00:32:53;;;;;;;4.43;1.43;;;;;;;21.92;53.97;98167.69;5156610;27;42762;-77
2022/09/08 00:35:21;;;;;;;2.07;1.30;;;;;;;21.99;53.91;98182.97;5138076;27;40805;-79
2022/09/08 00:37:52;;;;;;;2.30;1.17;;;;;;;21.98;53.45;98185.81;5137967;27;40883;-76
2022/09/08 00:40:23;;;;;;;1.27;1.10;;;;;;;21.97;53.63;98195.78;5138037;27;42569;-78
2022/09/08 00:43:00;;;;;;;2.20;1.30;;;;;;;21.96;53.40;98193.25;5153092;27;42789;-75
2022/09/08 00:45:32;;;;;;;1.63;1.20;;;;;;;21.88;53.62;98179.88;5134842;27;42254;-78
2022/09/08 00:48:04;;;;;;;1.93;1.47;;;;;;;21.96;53.69;98198.66;5121005;27;39006;-77
2022/09/08 00:50:33;;;;;;;1.30;1.20;;;;;;;21.97;53.83;98195.78;5134890;27;41540;-80
2022/09/08 00:53:05;;;;;;;1.40;1.30;;;;;;;21.99;53.66;98203.72;5137638;27;42726;-78
2022/09/08 00:55:37;;;;;;;1.67;1.30;;;;;;;22.03;53.51;98213.09;5120461;27;42322;-79
2022/09/08 00:58:05;;;;;;;1.50;1.37;;;;;;;22.05;53.53;98219.13;5135165;27;40718;-81
2022/09/08 01:00:37;;;;;;;1.53;1.40;;;;;;;22.07;53.23;98226.03;5127169;27;41556;-79
2022/09/08 01:03:07;;;;;;;4.27;1.50;;;;;;;22.08;53.89;98224.16;5119223;27;43194;-75
2022/09/08 01:05:47;;;;;;;2.17;1.50;;;;;;;22.06;54.10;98226.22;5119646;27;41368;-77
2022/09/08 01:14:10;;;;;;;1.27;1.17;;;;;;;21.68;55.61;98228.88;5136407;27;42945;-78
2022/09/08 01:16:41;;;;;;;1.53;1.20;;;;;;;21.48;56.52;98227.72;5136586;27;44317;-80
2022/09/08 01:19:16;;;;;;;1.60;1.50;;;;;;;21.28;58.73;98229.19;5135986;27;41251;-76
2022/09/08 01:21:59;;;;;;;1.30;1.20;;;;;;;21.05;59.53;98205.75;5119157;27;41789;-78
2022/09/08 01:24:35;;;;;;;1.60;1.50;;;;;;;21.12;61.82;98214.81;5154494;27;42483;-76
2022/09/08 01:27:13;;;;;;;1.30;1.17;;;;;;;21.02;61.64;98221.41;5136062;27;42284;-76
2022/09/08 01:29:43;;;;;;;1.50;1.30;;;;;;;20.95;61.26;98223.97;5154993;27;39909;-80
2022/09/08 01:32:13;;;;;;;1.40;1.30;;;;;;;20.92;61.69;98235.09;5119220;27;41744;-79
2022/09/08 01:34:43;;;;;;;1.40;1.30;;;;;;;20.90;62.70;98229.03;5135517;27;44327;-79
2022/09/08 01:37:11;;;;;;;1.50;1.40;;;;;;;20.89;63.78;98234.63;5135894;27;42336;-77
2022/09/08 01:39:40;;;;;;;1.83;1.60;;;;;;;20.82;62.86;98231.78;5119274;27;40995;-80
2022/09/08 01:42:09;;;;;;;1.37;1.27;;;;;;;20.80;63.16;98228.44;5118557;27;40914;-78
2022/09/08 01:44:37;;;;;;;1.40;1.30;;;;;;;20.80;62.96;98237.34;5119107;27;41692;-80
2022/09/08 01:47:05;;;;;;;1.97;1.80;;;;;;;20.84;63.19;98235.16;5154452;27;43071;-76
2022/09/08 01:49:33;;;;;;;2.77;1.83;;;;;;;20.88;63.99;98223.03;5119263;27;39993;-79
2022/09/08 01:52:00;;;;;;;2.40;2.07;;;;;;;20.97;63.47;98223.81;5136085;27;41915;-77
2022/09/08 01:54:28;;;;;;;2.43;1.80;;;;;;;21.04;63.01;98224.75;5119129;27;42752;-80
2022/09/08 01:56:56;;;;;;;1.87;1.70;;;;;;;21.04;64.21;98204.06;5154333;27;42294;-80
2022/09/08 01:59:25;;;;;;;2.17;2.07;;;;;;;21.11;64.50;98221.19;5136292;27;40338;-77
2022/09/08 02:01:53;;;;;;;2.30;1.93;;;;;;;21.15;63.82;98216.28;5153155;27;41898;-75
2022/09/08 02:04:21;;;;;;;2.00;1.83;;;;;;;21.18;63.78;98215.94;5136406;27;43450;-77
2022/09/08 02:06:49;;;;;;;2.83;2.00;;;;;;;21.20;63.06;98219.31;5136679;27;42354;-79
2022/09/08 02:09:16;;;;;;;2.20;2.00;;;;;;;21.22;63.32;98213.75;5135948;27;40480;-75
2022/09/08 02:11:48;;;;;;;2.30;2.00;;;;;;;21.22;63.40;98216.44;5154872;27;42537;-78
2022/09/08 02:14:16;;;;;;;2.67;1.60;;;;;;;21.21;63.37;98236.31;5153719;27;42735;-79
2022/09/08 02:16:45;;;;;;;2.20;2.00;;;;;;;21.17;64.44;98223.16;5119046;27;41238;-79
2022/09/08 02:19:13;;;;;;;1.87;1.77;;;;;;;21.03;64.78;98197.00;5136338;27;38863;-80
2022/09/08 02:21:41;;;;;;;2.00;1.63;;;;;;;21.12;64.54;98217.50;5154828;27;42766;-80
2022/09/08 02:24:08;;;;;;;1.93;1.83;;;;;;;21.10;65.19;98203.38;5136165;27;43642;-75
2022/09/08 02:26:37;;;;;;;2.30;1.87;;;;;;;21.08;66.15;98205.41;5136189;27;43171;-80
2022/09/08 02:29:08;;;;;;;4.60;2.03;;;;;;;21.04;66.27;98197.84;5154518;27;40972;-79
2022/09/08 02:31:37;;;;;;;1.87;1.73;;;;;;;21.00;66.23;98197.38;5136458;27;41539;-78
2022/09/08 02:34:06;;;;;;;2.33;1.87;;;;;;;21.02;65.73;98194.47;5135591;27;42815;-75
2022/09/08 02:36:34;;;;;;;2.50;1.60;;;;;;;21.03;65.19;98213.16;5154536;27;43175;-80
2022/09/08 02:39:02;;;;;;;1.67;1.57;;;;;;;21.04;64.99;98209.44;5136012;27;40853;-77
2022/09/08 02:41:29;;;;;;;1.60;1.50;;;;;;;20.95;64.86;98199.75;5136040;27;41852;-80
2022/09/08 02:43:57;;;;;;;2.20;1.73;;;;;;;21.04;64.21;98214.84;5135949;27;43078;-80
2022/09/08 02:46:25;;;;;;;2.93;1.83;;;;;;;21.04;64.27;98198.69;5135882;27;41220;-76
2022/09/08 02:48:53;;;;;;;1.53;1.30;;;;;;;20.88;64.02;98182.66;5135633;27;40953;-78
2022/09/08 02:51:22;;;;;;;2.33;1.60;;;;;;;21.02;63.97;98206.09;5136030;27;41911;-77
2022/09/08 02:53:53;;;;;;;1.70;1.50;;;;;;;21.02;63.92;98192.63;5153708;27;43752;-78
2022/09/08 02:56:21;;;;;;;1.70;1.60;;;;;;;21.01;63.89;98198.22;5151265;27;42489;-77
2022/09/08 02:58:48;;;;;;;1.37;1.23;;;;;;;21.00;64.26;98192.00;5135540;27;40935;-80
2022/09/08 03:01:16;;;;;;;1.43;1.30;;;;;;;20.99;63.72;98182.25;5154146;27;41442;-81
2022/09/08 03:03:44;;;;;;;1.63;1.50;;;;;;;21.01;64.46;98179.38;5118124;27;42454;-77
2022/09/08 03:06:12;;;;;;;5.13;1.77;;;;;;;20.94;64.75;98165.78;5135679;27;40259;-79
2022/09/08 03:08:41;;;;;;;2.07;1.67;;;;;;;21.01;64.54;98165.91;5135548;27;39969;-80
2022/09/08 03:11:09;;;;;;;1.63;1.53;;;;;;;21.00;64.90;98162.38;5135460;27;41951;-78
2022/09/08 03:13:39;;;;;;;2.83;1.70;;;;;;;21.01;65.52;98161.38;5135134;27;43226;-79
2022/09/08 03:16:07;;;;;;;2.07;1.87;;;;;;;21.02;65.01;98176.47;5135696;27;42616;-79
2022/09/08 03:18:35;;;;;;;3.13;1.77;;;;;;;20.99;65.40;98174.16;5135083;27;40527;-79
2022/09/08 03:21:05;;;;;;;3.10;2.37;;;;;;;20.94;66.46;98160.38;5118419;27;40741;-79
2022/09/08 03:23:34;;;;;;;2.40;1.50;;;;;;;20.71;66.39;98127.22;5117907;27;41221;-77
2022/09/08 03:26:05;;;;;;;2.37;1.80;;;;;;;20.71;67.17;98133.47;5135596;27;42301;-80
2022/09/08 03:28:33;;;;;;;1.70;1.60;;;;;;;20.86;67.19;98163.16;5151902;27;40892;-78
2022/09/08 03:31:01;;;;;;;2.27;1.70;;;;;;;20.81;67.26;98165.50;5135793;27;41690;-80
2022/09/08 03:33:30;;;;;;;2.30;1.80;;;;;;;20.77;66.76;98165.03;5152921;27;43716;-80
2022/09/08 03:36:01;;;;;;;2.07;1.70;;;;;;;20.74;67.32;98157.31;5132650;27;43271;-80
2022/09/08 03:38:28;;;;;;;1.93;1.60;;;;;;;20.78;66.97;98165.84;5118022;27;40691;-77
2022/09/08 03:40:56;;;;;;;1.80;1.53;;;;;;;20.77;66.87;98174.97;5153839;27;42614;-81
2022/09/08 03:43:25;;;;;;;2.43;1.17;;;;;;;20.74;66.50;98173.47;5134915;27;43625;-77
2022/09/08 03:45:53;;;;;;;2.23;1.80;;;;;;;20.72;66.23;98177.34;5135360;27;43163;-82
2022/09/08 03:48:20;;;;;;;1.93;1.37;;;;;;;20.65;66.95;98160.22;5153706;27;40014;-77
2022/09/08 03:50:48;;;;;;;1.83;1.40;;;;;;;20.57;67.60;98153.03;5153644;27;41689;-78
2022/09/08 03:53:15;;;;;;;2.93;1.63;;;;;;;20.48;68.14;98153.25;5134692;27;43604;-79
2022/09/08 03:55:43;;;;;;;2.43;1.70;;;;;;;20.33;68.19;98128.91;5135247;27;43229;-77
2022/09/08 03:58:12;;;;;;;1.93;1.40;;;;;;;20.33;68.58;98136.97;5118525;27;38673;-78
2022/09/08 04:00:43;;;;;;;2.50;1.60;;;;;;;20.28;69.40;98137.50;5157248;27;41731;-78
2022/09/08 04:03:11;;;;;;;1.77;1.67;;;;;;;20.23;69.17;98130.97;5135748;27;42744;-79
2022/09/08 04:05:39;;;;;;;1.60;1.50;;;;;;;20.19;69.87;98133.16;5138630;27;42407;-76
2022/09/08 04:08:08;;;;;;;1.80;1.70;;;;;;;20.17;69.63;98128.97;5156873;27;39733;-78
2022/09/08 04:10:36;;;;;;;1.63;1.53;;;;;;;20.15;69.22;98131.88;5121226;27;41779;-79
2022/09/08 04:13:03;;;;;;;2.30;2.10;;;;;;;20.02;69.42;98113.59;5156668;27;43824;-79
2022/09/08 04:15:31;;;;;;;2.67;1.93;;;;;;;20.07;69.35;98118.44;5138333;27;42101;-79
2022/09/08 04:18:00;;;;;;;2.23;1.60;;;;;;;20.03;69.96;98117.09;5120615;27;40667;-77
2022/09/08 04:20:28;;;;;;;2.50;1.40;;;;;;;19.99;69.56;98111.25;5156874;27;41524;-77
2022/09/08 04:22:56;;;;;;;1.83;1.60;;;;;;;20.06;69.56;98122.13;5156448;27;42717;-78
2022/09/08 04:25:24;;;;;;;1.70;1.60;;;;;;;20.07;70.18;98118.44;5137939;27;41043;-78
2022/09/08 04:27:53;;;;;;;3.40;2.10;;;;;;;20.06;69.83;98116.75;5120475;27;40288;-76
2022/09/08 04:30:21;;;;;;;2.43;1.77;;;;;;;20.04;69.82;98118.78;5138100;27;40824;-76
2022/09/08 04:32:48;;;;;;;1.90;1.80;;;;;;;20.03;70.10;98122.47;5156387;27;42792;-79
2022/09/08 04:35:18;;;;;;;3.37;2.00;;;;;;;20.02;70.02;98123.50;5120509;27;41297;-81
2022/09/08 04:37:46;;;;;;;1.93;1.83;;;;;;;20.00;69.94;98133.59;5137709;27;40509;-76
2022/09/08 04:40:14;;;;;;;2.23;1.83;;;;;;;19.99;70.38;98119.31;5156122;27;42044;-78
2022/09/08 04:42:42;;;;;;;2.80;2.50;;;;;;;19.98;70.62;98130.22;5137781;27;43173;-78
2022/09/08 04:45:11;;;;;;;3.90;2.23;;;;;;;19.94;71.24;98128.88;5137694;27;41245;-78
2022/09/08 04:47:38;;;;;;;2.23;2.03;;;;;;;19.96;71.32;98126.88;5137905;27;40344;-79
2022/09/08 04:50:07;;;;;;;2.13;1.93;;;;;;;19.98;72.42;98128.38;5137816;27;41900;-78
2022/09/08 04:52:37;;;;;;;2.90;2.57;;;;;;;19.99;71.90;98123.84;5137849;27;43549;-77
2022/09/08 04:55:05;;;;;;;2.43;2.20;;;;;;;19.93;71.65;98124.53;5137767;27;43039;-75
2022/09/08 04:57:33;;;;;;;2.30;2.10;;;;;;;19.97;72.22;98121.34;5137934;27;39054;-78
2022/09/08 05:00:01;;;;;;;3.70;2.93;;;;;;;19.96;72.26;98129.56;5120364;27;41519;-79
2022/09/08 05:02:30;;;;;;;2.70;2.00;;;;;;;19.94;72.37;98118.16;5137705;27;43717;-78
2022/09/08 05:04:57;;;;;;;1.93;1.83;;;;;;;19.89;72.63;98123.22;5137069;27;42269;-80
2022/09/08 05:07:25;;;;;;;3.23;1.97;;;;;;;19.96;72.39;98126.88;5137539;27;40849;-77
2022/09/08 05:09:54;;;;;;;3.03;2.80;;;;;;;19.86;72.61;98104.75;5136078;27;41728;-77
2022/09/08 05:12:22;;;;;;;4.07;2.33;;;;;;;19.95;72.64;98119.81;5137227;27;41921;-80
2022/09/08 05:14:49;;;;;;;2.50;2.30;;;;;;;19.95;72.72;98106.38;5137384;27;41279;-77
2022/09/08 05:17:17;;;;;;;2.73;2.53;;;;;;;19.95;72.74;98111.75;5120067;27;40007;-76
2022/09/08 05:19:45;;;;;;;2.20;2.03;;;;;;;19.98;72.66;98119.47;5136946;27;40647;-77
2022/09/08 05:22:12;;;;;;;3.37;2.50;;;;;;;20.00;73.28;98120.16;5137354;27;42894;-77
2022/09/08 05:24:40;;;;;;;3.57;2.50;;;;;;;20.02;72.96;98120.81;5155250;27;42033;-76
2022/09/08 05:27:09;;;;;;;3.30;2.77;;;;;;;20.03;72.89;98119.78;5137514;27;40887;-76
2022/09/08 05:29:37;;;;;;;2.90;2.70;;;;;;;20.03;72.75;98122.47;5155366;27;42745;-75
2022/09/08 05:32:05;;;;;;;3.27;2.57;;;;;;;20.04;72.74;98126.84;5119941;27;44281;-75
2022/09/08 05:34:32;;;;;;;3.13;2.90;;;;;;;20.03;72.93;98133.22;5119258;27;42820;-76
2022/09/08 05:37:00;;;;;;;3.37;3.00;;;;;;;20.02;72.82;98135.09;5137018;27;38270;-78
2022/09/08 05:39:28;;;;;;;4.33;2.67;;;;;;;20.00;73.63;98138.97;5119232;27;41798;-77
2022/09/08 05:41:55;;;;;;;3.23;2.93;;;;;;;19.92;73.05;98122.84;5119412;27;44281;-75
2022/09/08 05:44:24;;;;;;;3.10;2.80;;;;;;;20.04;73.69;98135.75;5118995;27;41126;-76
2022/09/08 05:46:52;;;;;;;3.10;2.80;;;;;;;20.06;73.86;98127.50;5155181;27;39840;-76
2022/09/08 05:49:20;;;;;;;3.23;2.30;;;;;;;20.07;74.20;98131.88;5154638;27;41678;-76
2022/09/08 05:51:50;;;;;;;4.07;2.67;;;;;;;20.08;73.76;98145.16;5119402;27;42098;-76
2022/09/08 05:54:18;;;;;;;3.50;3.20;;;;;;;20.05;74.68;98141.97;5135909;27;42008;-76
2022/09/08 05:56:45;;;;;;;4.00;2.63;;;;;;;20.03;74.62;98149.34;5154961;27;41784;-77
2022/09/08 05:59:13;;;;;;;2.77;2.57;;;;;;;19.92;74.39;98128.22;5136247;27;41463;-77
2022/09/08 06:01:42;;;;;;;2.60;2.40;;;;;;;20.04;74.30;98146.50;5155188;27;43792;-77
2022/09/08 06:04:10;;;;;;;3.07;2.77;;;;;;;19.99;75.25;98143.50;5154361;27;41938;-76
2022/09/08 06:06:38;;;;;;;5.40;3.10;;;;;;;19.66;75.36;98105.09;5136478;27;38645;-77
2022/09/08 06:09:06;;;;;;;2.80;2.60;;;;;;;19.94;75.66;98150.38;5136190;27;41727;-78
2022/09/08 06:11:36;;;;;;;2.23;2.07;;;;;;;19.92;75.85;98155.94;5136228;27;42815;-79
2022/09/08 06:14:05;;;;;;;2.30;2.10;;;;;;;19.83;76.52;98156.13;5136011;27;42008;-79
2022/09/08 06:16:33;;;;;;;3.70;2.63;;;;;;;19.80;76.29;98156.47;5136621;27;39873;-77
2022/09/08 06:19:03;;;;;;;2.33;1.87;;;;;;;19.78;76.51;98161.19;5118639;27;40570;-77
2022/09/08 06:21:32;;;;;;;1.70;1.60;;;;;;;19.77;76.29;98159.53;5136007;27;42831;-77
2022/09/08 06:24:02;;;;;;;2.30;2.03;;;;;;;19.73;76.73;98161.69;5154316;27;42251;-78
2022/09/08 06:26:57;;;;;;;3.00;1.97;;;;;;;19.74;77.02;98166.06;5119088;27;40134;-78
2022/09/08 06:29:36;;;;;;;2.40;2.20;;;;;;;19.71;77.12;98161.88;5118503;27;44320;-78
2022/09/08 06:32:14;;;;;;;4.50;2.80;;;;;;;19.72;76.83;98166.22;5133249;27;43710;-80
2022/09/08 06:34:47;;;;;;;2.63;2.43;;;;;;;19.73;77.29;98169.75;5154044;27;42246;-78
2022/09/08 06:37:27;;;;;;;2.57;2.37;;;;;;;19.72;77.30;98168.91;5119040;27;39161;-79
2022/09/08 06:40:01;;;;;;;2.33;2.13;;;;;;;19.58;77.39;98155.34;5118641;27;42938;-78
2022/09/08 06:42:36;;;;;;;3.37;2.40;;;;;;;19.63;77.56;98174.47;5132599;27;43475;-80
2022/09/08 06:45:08;;;;;;;2.40;2.20;;;;;;;19.60;78.15;98172.97;5135539;27;42526;-79
2022/09/08 06:47:44;;;;;;;2.47;2.10;;;;;;;19.57;77.58;98181.34;5118585;27;40666;-78
2022/09/08 06:50:16;;;;;;;2.77;2.30;;;;;;;19.51;77.88;98182.03;5132392;27;41815;-75
2022/09/08 06:52:47;;;;;;;2.27;2.00;;;;;;;19.42;78.24;98171.41;5135106;27;44151;-76
2022/09/08 06:55:26;;;;;;;3.10;2.20;;;;;;;19.34;77.87;98181.16;5132071;27;42097;-77
2022/09/08 06:58:07;;;;;;;2.00;1.80;;;;;;;19.33;78.14;98178.63;5117949;27;40173;-77
2022/09/08 07:00:44;;;;;;;2.37;1.80;;;;;;;19.29;78.63;98182.66;5118386;27;40746;-77
2022/09/08 07:03:31;;;;;;;1.70;1.57;;;;;;;19.25;78.75;98181.34;5117613;27;44437;-77
2022/09/08 07:06:05;;;;;;;3.63;1.80;;;;;;;19.20;78.69;98170.25;5118194;27;42344;-76
2022/09/08 07:08:55;;;;;;;2.27;2.07;;;;;;;19.22;78.63;98179.81;5135014;27;38915;-77
2022/09/08 07:11:33;;;;;;;1.90;1.70;;;;;;;19.22;78.38;98181.66;5135040;27;42421;-76
2022/09/08 07:14:14;;;;;;;2.73;2.33;;;;;;;18.85;78.98;98123.94;5117942;27;41648;-78
2022/09/08 07:16:46;;;;;;;2.00;1.90;;;;;;;19.15;79.09;98188.72;5135107;27;41413;-76
2022/09/08 07:19:20;;;;;;;3.27;2.00;;;;;;;19.15;79.75;98186.03;5117783;27;40032;-77
2022/09/08 07:21:54;;;;;;;4.23;2.37;;;;;;;19.17;79.25;98184.81;5135652;27;41706;-76
2022/09/08 07:24:28;;;;;;;2.50;2.30;;;;;;;19.21;78.80;98185.34;5134482;27;43128;-78
2022/09/08 07:26:59;;;;;;;2.40;2.20;;;;;;;19.24;79.60;98180.50;5117630;27;42567;-77
2022/09/08 07:29:30;;;;;;;2.57;2.37;;;;;;;19.19;79.31;98172.09;5153443;27;39748;-78
2022/09/08 07:32:00;;;;;;;3.00;2.40;;;;;;;19.27;80.31;98173.97;5117972;27;41884;-77
2022/09/08 07:34:30;;;;;;;2.30;1.93;;;;;;;19.28;79.85;98181.84;5137172;27;42753;-78
2022/09/08 07:37:09;;;;;;;2.70;2.50;;;;;;;19.31;79.73;98186.03;5135768;27;43239;-76
2022/09/08 07:39:43;;;;;;;1.70;1.50;;;;;;;19.40;79.50;98194.94;5138933;27;39392;-76
2022/09/08 07:42:14;;;;;;;1.93;1.70;;;;;;;19.44;79.14;98196.25;5154033;27;42680;-76
2022/09/08 07:44:42;;;;;;;1.87;1.77;;;;;;;19.47;78.78;98199.47;5138408;27;42689;-76
2022/09/08 07:47:40;;;;;;;4.63;1.67;;;;;;;19.43;79.76;98206.16;5121256;27;41705;-76
2022/09/08 07:50:23;;;;;;;1.83;1.67;;;;;;;19.37;79.70;98205.00;5121277;27;38945;-75
2022/09/08 07:53:00;;;;;;;1.40;1.30;;;;;;;19.40;79.58;98206.53;5135423;27;41418;-77
2022/09/08 07:55:33;;;;;;;2.20;2.00;;;;;;;19.43;79.58;98210.69;5138570;27;41653;-77
2022/09/08 07:58:14;;;;;;;1.47;1.37;;;;;;;19.51;79.89;98214.28;5135516;27;42133;-76
2022/09/08 08:00:53;;;;;;;1.70;1.47;;;;;;;19.62;79.77;98213.94;5121344;27;38951;-77
2022/09/08 08:03:48;;;;;;;1.13;1.03;;;;;;;19.71;79.31;98210.22;5135674;27;41895;-76
2022/09/08 08:06:21;;;;;;;1.63;1.10;;;;;;;19.78;79.07;98220.31;5135898;27;44344;-76
2022/09/08 08:09:02;;;;;;;1.60;1.50;;;;;;;19.76;79.15;98238.44;5138037;27;42051;-77
2022/09/08 08:11:37;;;;;;;3.13;1.23;;;;;;;19.73;79.31;98245.81;5138208;27;39873;-76
2022/09/08 08:14:13;;;;;;;1.23;1.13;;;;;;;19.76;79.22;98249.19;5136669;27;41688;-76
2022/09/08 08:16:54;;;;;;;1.47;1.27;;;;;;;19.82;78.88;98251.19;5135147;27;42938;-78
2022/09/08 08:19:38;;;;;;;2.10;1.50;;;;;;;19.72;79.03;98238.78;5137638;27;42584;-78
2022/09/08 08:22:14;;;;;;;1.30;1.20;;;;;;;19.89;78.66;98262.97;5138430;27;38374;-78
2022/09/08 08:24:54;;;;;;;2.07;1.50;;;;;;;19.85;78.46;98258.91;5138099;27;40664;-78
2022/09/08 08:27:29;;;;;;;1.23;1.20;;;;;;;19.98;77.83;98278.06;5134981;27;42509;-76
2022/09/08 08:30:17;;;;;;;1.20;1.10;;;;;;;20.10;77.72;98268.63;5156039;27;42319;-77
2022/09/08 08:32:53;;;;;;;1.47;0.97;;;;;;;20.17;77.30;98279.53;5156295;27;41595;-77
2022/09/08 08:35:27;;;;;;;1.20;1.10;;;;;;;20.32;76.89;98288.59;5156032;27;42799;-76
2022/09/08 08:37:55;;;;;;;1.97;1.20;;;;;;;20.39;76.57;98300.38;5134742;27;42922;-78
2022/09/08 08:40:38;;;;;;;2.00;1.20;;;;;;;20.52;76.23;98305.25;5137581;27;42244;-78
2022/09/08 08:43:21;;;;;;;1.20;1.10;;;;;;;20.61;75.77;98291.59;5153263;27;39918;-75
2022/09/08 08:46:02;;;;;;;1.33;1.17;;;;;;;20.73;75.70;98281.28;5120407;27;40645;-78
2022/09/08 08:48:45;;;;;;;1.07;0.97;;;;;;;20.91;74.79;98302.56;5135844;27;42879;-78
2022/09/08 08:51:29;;;;;;;0.97;0.97;;;;;;;20.97;73.99;98305.41;5120551;27;42720;-78
2022/09/08 08:54:21;;;;;;;0.80;0.80;;;;;;;21.14;73.97;98307.00;5136525;27;39950;-77
2022/09/08 08:56:57;;;;;;;1.40;1.30;;;;;;;21.38;73.31;98302.53;5134132;27;41624;-77
2022/09/08 08:59:47;;;;;;;0.93;0.93;;;;;;;21.65;73.05;98299.31;5155053;27;42521;-77
2022/09/08 09:02:33;;;;;;;1.37;1.00;;;;;;;21.88;71.10;98287.69;5153363;27;42175;-77
2022/09/08 09:05:25;;;;;;;1.10;1.03;;;;;;;22.37;69.07;98296.22;5120695;27;39283;-79
2022/09/08 09:08:26;;;;;;;1.13;1.03;;;;;;;23.20;66.88;98304.88;5120372;27;43956;-79
2022/09/08 09:11:05;;;;;;;0.90;0.90;;;;;;;23.60;65.32;98308.06;5103672;27;42551;-79
2022/09/08 09:14:14;;;;;;;1.03;0.83;;;;;;;23.75;63.90;98318.78;5154322;27;43399;-78
2022/09/08 09:16:58;;;;;;;0.70;0.70;;;;;;;23.75;61.65;98305.28;5137730;27;40805;-80
2022/09/08 09:19:43;;;;;;;1.43;0.90;;;;;;;23.87;62.55;98309.97;5120152;27;41901;-79
2022/09/08 09:22:21;;;;;;;0.97;0.60;;;;;;;24.06;62.29;98316.63;5137704;27;42148;-80
2022/09/08 09:25:11;;;;;;;0.70;0.70;;;;;;;24.29;61.55;98319.13;5136915;27;41587;-80
2022/09/08 09:27:43;;;;;;;0.90;0.90;;;;;;;24.74;60.44;98323.19;5120505;27;42242;-80
2022/09/08 09:30:30;;;;;;;0.80;0.80;;;;;;;25.17;58.70;98331.16;5120442;27;40713;-82
2022/09/08 09:33:27;;;;;;;0.90;0.70;;;;;;;25.27;57.09;98335.19;5137521;27;42764;-79
2022/09/08 09:36:12;;;;;;;1.27;0.70;;;;;;;25.15;54.84;98336.78;5152867;27;42520;-79
2022/09/08 09:39:14;;;;;;;1.60;0.70;;;;;;;25.38;55.55;98360.88;5137296;27;38770;-80
2022/09/08 09:42:03;;;;;;;0.50;0.50;;;;;;;25.64;55.15;98347.44;5136919;27;41671;-81
2022/09/08 09:44:53;;;;;;;0.60;0.60;;;;;;;25.90;54.38;98352.09;5154721;27;43772;-80
2022/09/08 09:47:41;;;;;;;0.60;0.60;;;;;;;25.97;53.59;98355.66;5152376;27;42897;-79
2022/09/08 09:50:38;;;;;;;1.73;0.60;;;;;;;25.76;53.22;98351.22;5137376;27;38857;-79
2022/09/08 09:53:22;;;;;;;0.70;0.70;;;;;;;25.34;53.37;98344.19;5136558;27;42090;-78
2022/09/08 09:56:19;;;;;;;1.60;0.80;;;;;;;25.00;53.32;98357.75;5151213;27;43544;-79
2022/09/08 09:59:18;;;;;;;1.20;0.57;;;;;;;24.98;53.92;98362.53;5154986;27;42260;-79
2022/09/08 10:02:06;;;;;;;0.60;0.60;;;;;;;24.84;53.74;98344.53;5119590;27;38966;-77
2022/09/08 10:04:56;;;;;;;1.17;0.70;;;;;;;24.97;53.95;98350.06;5136575;27;42764;-78
2022/09/08 10:07:57;;;;;;;1.33;0.60;;;;;;;25.24;53.34;98362.69;5119218;27;44089;-78
2022/09/08 10:10:50;;;;;;;1.00;0.73;;;;;;;25.25;52.20;98374.34;5131198;27;41320;-76
2022/09/08 10:13:49;;;;;;;0.63;0.63;;;;;;;25.12;52.35;98363.44;5123539;27;41494;-77
2022/09/08 10:17:00;;;;;;;0.50;0.50;;;;;;;25.18;51.76;98373.50;5130662;27;43834;-77
2022/09/08 10:19:54;;;;;;;1.23;0.63;;;;;;;25.04;51.66;98367.16;5135510;27;42849;-76
2022/09/08 10:22:54;;;;;;;0.60;0.60;;;;;;;24.67;50.95;98371.91;5152209;27;42260;-78
2022/09/08 10:25:49;;;;;;;0.50;0.50;;;;;;;24.33;51.22;98377.25;5118618;27;39886;-77
2022/09/08 10:29:00;;;;;;;0.57;0.53;;;;;;;24.26;52.31;98368.22;5135807;27;41780;-78
2022/09/08 10:32:04;;;;;;;0.60;0.60;;;;;;;24.74;51.65;98376.50;5118834;27;41629;-79
2022/09/08 10:35:10;;;;;;;0.70;0.70;;;;;;;24.94;51.50;98381.06;5135176;27;42416;-79
2022/09/08 10:38:19;;;;;;;0.60;0.60;;;;;;;25.78;50.19;98391.72;5154915;27;40949;-77
2022/09/08 10:41:08;;;;;;;0.60;0.60;;;;;;;28.16;45.73;98403.97;5110795;27;41520;-78
2022/09/08 10:44:15;;;;;;;0.70;0.70;;;;;;;30.16;41.06;98438.16;5118592;27;42941;-78
2022/09/08 10:47:06;;;;;;;0.67;0.67;;;;;;;32.63;35.67;98463.25;5135951;27;42485;-80
2022/09/08 10:49:55;;;;;;;0.57;0.57;;;;;;;33.54;34.54;98469.41;5135646;27;40009;-77
2022/09/08 10:52:31;;;;;;;0.73;0.50;;;;;;;32.92;34.54;98457.72;5135353;27;42128;-78
2022/09/08 10:55:29;;;;;;;0.57;0.57;;;;;;;32.00;35.34;98463.41;5154003;27;43808;-76
2022/09/08 10:58:23;;;;;;;0.60;0.60;;;;;;;30.63;37.23;98454.72;5118225;27;41858;-79
2022/09/08 11:01:06;;;;;;;0.60;0.60;;;;;;;29.64;38.41;98440.47;5135611;27;41297;-81
2022/09/08 11:03:58;;;;;;;0.50;0.50;;;;;;;29.29;39.67;98434.75;5152004;27;42777;-81
2022/09/08 11:06:42;;;;;;;0.50;0.50;;;;;;;29.15;39.34;98440.53;5132533;27;42815;-79
2022/09/08 11:09:31;;;;;;;0.60;0.60;;;;;;;29.14;39.55;98437.00;5151490;27;42290;-76
2022/09/08 11:12:24;;;;;;;0.50;0.50;;;;;;;28.92;39.75;98441.19;5135665;27;38925;-81
2022/09/08 11:15:31;;;;;;;0.53;0.47;;;;;;;28.76;38.77;98448.00;5153644;27;42767;-80
2022/09/08 11:18:20;;;;;;;0.77;0.70;;;;;;;28.89;39.40;98439.75;5118564;27;41609;-78
2022/09/08 11:20:52;;;;;;;2.10;0.70;;;;;;;29.35;39.16;98440.34;5117685;27;41342;-81
2022/09/08 11:23:31;;;;;;;0.60;0.60;;;;;;;29.93;38.64;98452.47;5133149;27;41861;-77
2022/09/08 11:26:15;;;;;;;1.13;0.60;;;;;;;30.60;36.56;98466.09;5135129;27;40714;-79
2022/09/08 11:28:54;;;;;;;0.47;0.47;;;;;;;30.41;35.36;98467.22;5135156;27;41625;-81
2022/09/08 11:31:55;;;;;;;1.30;0.60;;;;;;;30.61;35.97;98473.25;5135217;27;42806;-78
2022/09/08 11:34:41;;;;;;;0.50;0.50;;;;;;;29.88;36.28;98455.06;5117299;27;38922;-77
2022/09/08 11:37:42;;;;;;;0.57;0.50;;;;;;;29.29;37.42;98453.00;5135394;27;41860;-79
2022/09/08 11:40:42;;;;;;;1.00;0.53;;;;;;;28.78;36.99;98461.41;5136214;27;43083;-81
2022/09/08 11:43:29;;;;;;;1.03;0.53;;;;;;;28.59;37.57;98457.75;5132582;27;42105;-78
2022/09/08 11:46:07;;;;;;;1.53;0.60;;;;;;;28.75;37.33;98462.66;5134408;27;39243;-77
2022/09/08 11:48:55;;;;;;;0.57;0.40;;;;;;;28.65;37.83;98459.63;5132694;27;42712;-81
2022/09/08 11:51:41;;;;;;;0.67;0.40;;;;;;;28.08;38.42;98452.38;5118079;27;43249;-80
2022/09/08 11:54:36;;;;;;;0.63;0.40;;;;;;;27.57;39.86;98449.69;5118169;27;42681;-77
2022/09/08 11:57:26;;;;;;;1.93;0.60;;;;;;;27.54;40.52;98449.03;5153632;27;39782;-78
2022/09/08 12:00:13;;;;;;;0.50;0.50;;;;;;;27.80;39.94;98463.63;5134511;27;41790;-78
2022/09/08 12:03:03;;;;;;;0.67;0.43;;;;;;;27.44;40.45;98453.25;5135078;27;42958;-79
2022/09/08 12:05:41;;;;;;;0.87;0.40;;;;;;;28.66;38.12;98463.16;5134925;27;42181;-77
2022/09/08 12:08:25;;;;;;;0.50;0.50;;;;;;;31.23;33.94;98498.34;5150670;27;39957;-78
2022/09/08 12:11:11;;;;;;;1.60;0.70;;;;;;;33.72;31.47;98504.84;5134588;27;40750;-79
2022/09/08 12:13:50;;;;;;;0.90;0.50;;;;;;;35.37;27.70;98507.22;5151238;27;42849;-78
2022/09/08 12:16:36;;;;;;;0.53;0.53;;;;;;;36.82;26.06;98524.75;5149846;27;42163;-79
2022/09/08 12:19:22;;;;;;;0.70;0.70;;;;;;;37.68;25.37;98540.53;5134063;27;41673;-80
2022/09/08 12:22:09;;;;;;;0.57;0.47;;;;;;;38.87;24.05;98543.38;5153718;27;41745;-79